Search for airport 
image banner adimage banner adimage banner ad
image banner ad

KHMZ - Bedford County

Located in Bedford, United States

ICAO - HMZ, IATA -

Data provided by Airmate  

General information

Coordinates: N40°5'10" W78°30'49"
Elevation is 1162 feet MSL.
Magnetic variation is -09° East
View others Airports in Pennsylvania

Operational data

Special qualification required
Current time UTC:
Current local time:
Weather
METAR: KHMZ 132115Z AUTO 18008KT 10SM CLR 24/19 A2985 RMK AO2 LTG DSNT SW T02390187
View NOTAMs / SUP AIP / TFR affecting this airport [VIEW]
Communications frequencies: [VIEW]

Runways:

RWY identifierQFULength (ft)Width (ft)SurfaceLDA (ft)
14127°500575ASPH
32307°500575ASPH

Airport contact information

Address: Bedford United States

Other aviation service providers

Flight schools

Bun Air Corporation

Bun Air Corporation
mail@bunaircorp.com+1(814)623-8171

Satellite view of KHMZ